createdAt,value
2023-03-06T00:01:10.009Z,-3.90
2023-03-06T00:03:12.073Z,-3.80
2023-03-06T00:05:14.521Z,-3.80
2023-03-06T00:07:16.298Z,-3.80
2023-03-06T00:09:18.020Z,-3.90
2023-03-06T00:11:19.751Z,-3.80
2023-03-06T00:13:21.608Z,-3.90
2023-03-06T00:15:24.494Z,-3.90
2023-03-06T00:17:27.499Z,-3.90
2023-03-06T00:19:29.276Z,-3.90
2023-03-06T00:21:31.019Z,-3.80
2023-03-06T00:23:32.758Z,-3.90
2023-03-06T00:25:38.545Z,-3.80
2023-03-06T00:27:40.462Z,-4.00
2023-03-06T00:29:42.429Z,-4.00
2023-03-06T00:31:46.479Z,-4.00
2023-03-06T00:33:48.252Z,-4.00
2023-03-06T00:35:50.257Z,-4.00
2023-03-06T00:37:52.072Z,-4.10
2023-03-06T00:39:53.913Z,-4.00
2023-03-06T00:41:55.680Z,-4.00
2023-03-06T00:43:57.423Z,-4.10
2023-03-06T00:46:00.780Z,-4.10
2023-03-06T00:48:02.588Z,-4.20
2023-03-06T00:50:05.038Z,-4.10
2023-03-06T00:52:06.800Z,-4.10
2023-03-06T00:54:08.547Z,-4.10
2023-03-06T00:56:10.527Z,-4.00
2023-03-06T00:58:12.564Z,-4.00
2023-03-06T01:00:14.947Z,-4.00
2023-03-06T01:02:16.895Z,-4.00
2023-03-06T01:04:18.823Z,-4.10
2023-03-06T01:06:20.628Z,-4.10
2023-03-06T01:08:22.404Z,-4.10
2023-03-06T01:10:24.182Z,-4.20
2023-03-06T01:12:25.987Z,-4.10
2023-03-06T01:14:28.074Z,-4.10
2023-03-06T01:16:29.939Z,-4.10
2023-03-06T01:18:31.698Z,-4.10
2023-03-06T01:20:33.553Z,-4.00
2023-03-06T01:22:35.288Z,-4.00
2023-03-06T01:24:37.039Z,-4.00
2023-03-06T01:26:38.821Z,-4.00
2023-03-06T01:28:40.743Z,-3.90
2023-03-06T01:30:42.476Z,-3.90
2023-03-06T01:32:44.425Z,-3.80
2023-03-06T01:34:46.151Z,-3.80
2023-03-06T01:36:47.934Z,-3.70
2023-03-06T01:38:49.722Z,-3.80
2023-03-06T01:40:51.484Z,-3.70
2023-03-06T01:42:53.851Z,-3.80
2023-03-06T01:44:58.623Z,-3.80
2023-03-06T01:47:02.419Z,-3.80
2023-03-06T01:49:16.481Z,-3.80
2023-03-06T01:51:18.393Z,-3.80
2023-03-06T01:53:20.530Z,-3.80
2023-03-06T01:55:24.837Z,-3.70
2023-03-06T01:57:29.199Z,-3.80
2023-03-06T01:59:33.358Z,-3.90
2023-03-06T02:01:35.417Z,-3.80
2023-03-06T02:03:38.096Z,-3.90
2023-03-06T02:05:41.179Z,-3.90
2023-03-06T02:07:44.307Z,-3.90
2023-03-06T02:09:46.058Z,-3.80
2023-03-06T02:11:47.914Z,-3.90
2023-03-06T02:13:50.427Z,-4.00
2023-03-06T02:15:52.198Z,-3.90
2023-03-06T02:17:54.086Z,-3.80
2023-03-06T02:20:03.867Z,-3.80
2023-03-06T02:22:06.031Z,-3.80
2023-03-06T02:24:26.482Z,-3.70
2023-03-06T02:26:28.783Z,-3.80
2023-03-06T02:28:30.625Z,-3.70
2023-03-06T02:30:32.606Z,-3.70
2023-03-06T02:32:34.409Z,-3.60
2023-03-06T02:34:39.197Z,-3.60
2023-03-06T02:36:43.227Z,-3.50
2023-03-06T02:38:47.517Z,-3.50
2023-03-06T02:40:50.934Z,-3.50
2023-03-06T02:42:56.285Z,-3.40
2023-03-06T02:44:59.395Z,-3.50
2023-03-06T02:47:01.354Z,-3.50
2023-03-06T02:49:03.076Z,-3.50
2023-03-06T02:51:04.884Z,-3.30
2023-03-06T02:53:07.149Z,-3.40
2023-03-06T02:55:09.106Z,-3.40
2023-03-06T02:57:11.089Z,-3.40
2023-03-06T02:59:12.837Z,-3.40
2023-03-06T03:01:14.716Z,-3.40
2023-03-06T03:03:16.715Z,-3.40
2023-03-06T03:05:18.657Z,-3.30
2023-03-06T03:07:20.377Z,-3.30
2023-03-06T03:09:22.161Z,-3.20
2023-03-06T03:11:23.974Z,-3.10
2023-03-06T03:13:25.741Z,-3.20
2023-03-06T03:15:27.487Z,-3.20
2023-03-06T03:17:29.256Z,-3.10
2023-03-06T03:19:30.981Z,-3.00
2023-03-06T03:21:32.730Z,-3.00
2023-03-06T03:23:34.943Z,-2.90
2023-03-06T03:25:36.658Z,-2.90
2023-03-06T03:27:38.385Z,-2.80
2023-03-06T03:29:40.396Z,-2.80
2023-03-06T03:31:42.159Z,-2.70
2023-03-06T03:33:43.899Z,-2.50
2023-03-06T03:35:45.754Z,-2.50
2023-03-06T03:37:47.640Z,-2.50
2023-03-06T03:39:49.352Z,-2.50
2023-03-06T03:41:51.107Z,-2.50
2023-03-06T03:43:52.880Z,-2.40
2023-03-06T03:45:54.670Z,-2.50
2023-03-06T03:47:56.466Z,-2.40
2023-03-06T03:49:58.266Z,-2.40
2023-03-06T03:52:00.011Z,-2.30
2023-03-06T03:54:01.847Z,-2.30
2023-03-06T03:56:04.219Z,-2.20
2023-03-06T03:58:05.934Z,-2.20
2023-03-06T04:00:08.201Z,-2.30
2023-03-06T04:02:10.097Z,-2.40
2023-03-06T04:04:11.940Z,-2.30
2023-03-06T04:06:13.776Z,-2.40
2023-03-06T04:08:15.573Z,-2.50
2023-03-06T04:10:17.376Z,-2.50
2023-03-06T04:12:19.152Z,-2.60
2023-03-06T04:14:20.892Z,-2.50
2023-03-06T04:16:22.834Z,-2.40
2023-03-06T04:18:24.746Z,-2.40
2023-03-06T04:20:26.517Z,-2.40
2023-03-06T04:22:28.292Z,-2.40
2023-03-06T04:24:30.050Z,-2.30
2023-03-06T04:26:31.776Z,-2.20
2023-03-06T04:28:33.582Z,-2.10
2023-03-06T04:30:35.413Z,-2.10
2023-03-06T04:32:37.222Z,-2.00
2023-03-06T04:34:39.010Z,-1.80
2023-03-06T04:36:45.226Z,-1.80
2023-03-06T04:38:47.067Z,-1.70
2023-03-06T04:40:49.785Z,-1.70
2023-03-06T04:42:51.800Z,-1.50
2023-03-06T04:44:53.718Z,-1.40
2023-03-06T04:46:55.500Z,-1.50
2023-03-06T04:48:57.398Z,-1.50
2023-03-06T04:50:59.104Z,-1.40
2023-03-06T04:53:01.555Z,-1.40
2023-03-06T04:55:08.657Z,-1.40
2023-03-06T04:57:10.419Z,-0.70
2023-03-06T04:59:12.122Z,-0.90
2023-03-06T05:01:13.923Z,-1.10
2023-03-06T05:03:15.663Z,-1.30
2023-03-06T05:05:18.237Z,-1.20
2023-03-06T05:07:19.990Z,-1.20
2023-03-06T05:09:21.731Z,-1.20
2023-03-06T05:11:23.482Z,-1.10
2023-03-06T05:13:25.580Z,-1.10
2023-03-06T05:15:27.314Z,-1.00
2023-03-06T05:17:30.044Z,-0.90
2023-03-06T05:19:31.824Z,-0.90
2023-03-06T05:21:33.586Z,-0.90
2023-03-06T05:23:41.791Z,-1.10
2023-03-06T05:25:43.620Z,-1.10
2023-03-06T05:27:45.369Z,-1.10
2023-03-06T05:29:47.135Z,-1.10
2023-03-06T05:31:48.980Z,-1.10
2023-03-06T05:33:50.751Z,-1.10
2023-03-06T05:35:52.795Z,-0.90
2023-03-06T05:37:54.745Z,-0.90
2023-03-06T05:39:56.716Z,-1.00
2023-03-06T05:41:58.454Z,-1.00
2023-03-06T05:44:00.402Z,-1.10
2023-03-06T05:46:04.474Z,-1.00
2023-03-06T05:48:07.009Z,-1.00
2023-03-06T05:50:10.550Z,-1.00
2023-03-06T05:52:13.331Z,-0.90
2023-03-06T05:54:15.067Z,-0.90
2023-03-06T05:56:17.153Z,-0.80
2023-03-06T05:58:19.016Z,-0.70
2023-03-06T06:00:22.457Z,-0.70
2023-03-06T06:02:24.318Z,-0.50
2023-03-06T06:04:26.494Z,-0.60
2023-03-06T06:06:28.232Z,-0.60
2023-03-06T06:08:30.084Z,-0.60
2023-03-06T06:10:31.827Z,-0.50
2023-03-06T06:12:33.593Z,-0.50
2023-03-06T06:14:35.383Z,-0.50
2023-03-06T06:16:37.111Z,-0.50
2023-03-06T06:18:41.125Z,-0.40
2023-03-06T06:20:43.260Z,-0.20
2023-03-06T06:22:45.003Z,-0.20
2023-03-06T06:24:46.736Z,-0.30
2023-03-06T06:26:52.068Z,-0.20
2023-03-06T06:28:53.852Z,-0.20
2023-03-06T06:30:55.643Z,-0.10
2023-03-06T06:32:57.574Z,-0.10
2023-03-06T06:34:59.359Z,-0.10
2023-03-06T06:37:01.163Z,0.00
2023-03-06T06:39:03.729Z,0.10
2023-03-06T06:41:33.446Z,0.30
2023-03-06T06:43:28.241Z,0.30
2023-03-06T06:45:29.981Z,0.30
2023-03-06T06:47:33.082Z,0.30
2023-03-06T06:49:34.988Z,0.30
2023-03-06T06:51:37.461Z,0.40
2023-03-06T06:53:39.208Z,0.40
2023-03-06T06:55:40.994Z,0.40
2023-03-06T06:57:43.374Z,0.50
2023-03-06T06:59:45.183Z,0.40
2023-03-06T07:01:47.002Z,0.50
2023-03-06T07:03:48.785Z,0.50
2023-03-06T07:05:56.343Z,0.60
2023-03-06T07:07:58.104Z,0.60
2023-03-06T07:09:59.922Z,0.60
2023-03-06T07:12:01.743Z,0.50
2023-03-06T07:14:03.534Z,0.40
2023-03-06T07:16:05.529Z,0.50
2023-03-06T07:18:07.290Z,0.50
2023-03-06T07:20:10.539Z,0.50
2023-03-06T07:22:12.312Z,0.30
2023-03-06T07:24:14.074Z,0.40
2023-03-06T07:26:15.834Z,0.50
2023-03-06T07:28:19.370Z,0.50
2023-03-06T07:30:22.284Z,0.50
2023-03-06T07:32:24.076Z,0.50
2023-03-06T07:34:25.888Z,0.60
2023-03-06T07:36:27.638Z,0.60
2023-03-06T07:38:29.430Z,0.60
2023-03-06T07:40:31.225Z,0.80
2023-03-06T07:42:32.986Z,0.90
2023-03-06T07:44:38.077Z,0.70
2023-03-06T07:46:39.981Z,0.80
2023-03-06T07:48:41.758Z,0.90
2023-03-06T07:50:43.579Z,0.90
2023-03-06T07:52:45.390Z,0.90
2023-03-06T07:54:48.152Z,1.00
2023-03-06T07:56:50.436Z,1.20
2023-03-06T07:58:52.186Z,1.10
2023-03-06T08:00:53.927Z,1.30
2023-03-06T08:02:55.747Z,1.50
2023-03-06T08:04:57.610Z,1.30
2023-03-06T08:06:59.913Z,1.30
2023-03-06T08:09:01.861Z,1.40
2023-03-06T08:11:03.753Z,1.50
2023-03-06T08:13:05.593Z,1.50
2023-03-06T08:15:09.344Z,1.60
2023-03-06T08:17:11.131Z,1.60
2023-03-06T08:19:12.970Z,1.90
2023-03-06T08:21:16.286Z,1.90
2023-03-06T08:23:18.135Z,2.10
2023-03-06T08:25:19.981Z,2.20
2023-03-06T08:27:21.835Z,2.20
2023-03-06T08:29:23.632Z,2.20
2023-03-06T08:31:31.566Z,2.30
2023-03-06T08:33:33.337Z,2.20
2023-03-06T08:35:35.155Z,2.10
2023-03-06T08:37:36.958Z,2.30
2023-03-06T08:39:38.722Z,2.20
2023-03-06T08:41:42.197Z,2.30
2023-03-06T08:43:43.962Z,2.30
2023-03-06T08:45:45.739Z,2.30
2023-03-06T08:47:47.566Z,2.40
2023-03-06T08:49:49.570Z,2.20
2023-03-06T08:51:51.351Z,2.20
2023-03-06T08:53:53.299Z,2.40
2023-03-06T08:55:55.048Z,2.10
2023-03-06T08:57:57.413Z,2.10
2023-03-06T08:59:59.274Z,2.20
2023-03-06T09:02:01.611Z,2.20
2023-03-06T09:04:07.866Z,2.50
2023-03-06T09:06:09.686Z,2.80
2023-03-06T09:08:11.821Z,2.80
2023-03-06T09:10:15.068Z,2.70
2023-03-06T09:12:16.844Z,2.70
2023-03-06T09:14:18.583Z,2.60
2023-03-06T09:16:20.624Z,2.90
2023-03-06T09:18:22.434Z,3.10
2023-03-06T09:20:24.363Z,3.00
2023-03-06T09:22:26.229Z,3.10
2023-03-06T09:24:28.134Z,2.90
2023-03-06T09:26:43.475Z,2.80
2023-03-06T09:28:46.835Z,2.70
2023-03-06T09:30:48.691Z,2.60
2023-03-06T09:32:50.484Z,3.00
2023-03-06T09:34:52.227Z,2.90
2023-03-06T09:36:57.097Z,3.00
2023-03-06T09:38:59.279Z,3.10
2023-03-06T09:41:01.024Z,3.50
2023-03-06T09:43:02.715Z,3.00
2023-03-06T09:45:04.789Z,3.00
2023-03-06T09:47:21.941Z,2.90
2023-03-06T09:49:42.337Z,3.00
2023-03-06T09:51:53.003Z,2.90
2023-03-06T09:53:54.778Z,2.80
2023-03-06T09:56:02.273Z,2.90
2023-03-06T09:58:07.134Z,3.30
2023-03-06T10:00:14.663Z,3.40
2023-03-06T10:02:20.285Z,3.30
2023-03-06T10:04:42.280Z,3.30
2023-03-06T10:06:49.124Z,3.60
2023-03-06T10:09:06.179Z,3.10
2023-03-06T10:11:09.998Z,3.20
2023-03-06T10:13:25.290Z,3.10
2023-03-06T10:15:30.031Z,3.50
2023-03-06T10:17:36.114Z,3.50
2023-03-06T10:19:42.217Z,3.70
2023-03-06T10:21:47.022Z,3.60
2023-03-06T10:23:58.563Z,3.60
2023-03-06T10:26:01.587Z,3.60
2023-03-06T10:28:08.812Z,3.90
2023-03-06T10:30:16.666Z,4.20
2023-03-06T10:32:25.477Z,4.10
2023-03-06T10:34:32.759Z,3.90
2023-03-06T10:36:34.541Z,4.30
2023-03-06T10:38:38.229Z,4.50
2023-03-06T10:40:46.471Z,4.50
2023-03-06T10:42:49.544Z,4.00
2023-03-06T10:45:10.879Z,3.80
2023-03-06T10:47:34.997Z,3.60
2023-03-06T10:49:37.385Z,3.80
2023-03-06T10:51:39.160Z,3.60
2023-03-06T10:53:49.980Z,4.20
2023-03-06T10:56:01.351Z,4.70
2023-03-06T10:58:21.830Z,4.10
2023-03-06T11:00:25.472Z,3.80
2023-03-06T11:02:27.492Z,4.00
2023-03-06T11:04:36.494Z,4.00
2023-03-06T11:06:38.238Z,3.90
2023-03-06T11:08:40.982Z,3.80
2023-03-06T11:10:54.917Z,4.10
2023-03-06T11:13:08.499Z,4.40
2023-03-06T11:15:23.799Z,4.30
2023-03-06T11:17:29.722Z,4.80
2023-03-06T11:19:32.772Z,4.90
2023-03-06T11:21:35.549Z,4.40
2023-03-06T11:23:38.809Z,4.40
2023-03-06T11:25:42.686Z,4.50
2023-03-06T11:27:46.828Z,4.80
2023-03-06T11:29:50.473Z,4.70
2023-03-06T11:31:52.232Z,4.50
2023-03-06T11:34:12.043Z,4.50
2023-03-06T11:36:16.149Z,4.30
2023-03-06T11:38:24.876Z,4.50
2023-03-06T11:40:46.830Z,4.60
2023-03-06T11:42:55.970Z,4.80
2023-03-06T11:44:57.673Z,5.20
2023-03-06T11:47:06.317Z,5.00
2023-03-06T11:49:18.607Z,4.70
2023-03-06T11:51:25.955Z,4.70
2023-03-06T11:53:35.471Z,4.60
2023-03-06T11:55:55.848Z,4.60
2023-03-06T11:57:57.558Z,4.60
2023-03-06T12:00:19.578Z,4.80
2023-03-06T12:02:42.918Z,4.60
2023-03-06T12:04:53.807Z,4.70
2023-03-06T12:07:09.976Z,4.80
2023-03-06T12:09:14.590Z,5.00
2023-03-06T12:13:29.966Z,5.10
2023-03-06T12:15:40.822Z,5.30
2023-03-06T12:17:42.533Z,5.10
2023-03-06T12:19:53.472Z,5.00
2023-03-06T12:22:05.885Z,5.20
2023-03-06T12:24:13.538Z,5.30
2023-03-06T12:26:24.692Z,5.20
2023-03-06T12:28:38.691Z,5.40
2023-03-06T12:30:59.102Z,5.20
2023-03-06T12:33:09.855Z,5.20
2023-03-06T12:35:17.568Z,5.20
2023-03-06T12:37:31.348Z,5.10
2023-03-06T12:39:36.186Z,4.90
2023-03-06T12:41:53.039Z,5.30
2023-03-06T12:43:54.785Z,5.60
2023-03-06T12:46:00.058Z,5.50
2023-03-06T12:48:02.179Z,5.50
2023-03-06T12:50:08.313Z,5.50
2023-03-06T12:52:18.703Z,5.40
2023-03-06T12:54:25.874Z,5.20
2023-03-06T12:56:28.469Z,5.40
2023-03-06T12:58:30.264Z,5.40
2023-03-06T13:00:32.163Z,5.70
2023-03-06T13:02:53.053Z,5.30
2023-03-06T13:05:10.555Z,5.20
2023-03-06T13:07:30.338Z,5.30
2023-03-06T13:09:50.955Z,5.40
2023-03-06T13:12:04.781Z,5.10
2023-03-06T13:14:25.048Z,5.20
2023-03-06T13:16:26.844Z,5.00
2023-03-06T13:18:46.103Z,5.20
2023-03-06T13:20:55.043Z,5.30
2023-03-06T13:22:57.016Z,5.50
2023-03-06T13:25:28.974Z,5.50
2023-03-06T13:27:45.464Z,5.40
2023-03-06T13:29:50.885Z,5.20
2023-03-06T13:31:52.584Z,5.20
2023-03-06T13:33:58.745Z,5.30
2023-03-06T13:36:20.145Z,5.30
2023-03-06T13:38:33.210Z,5.30
2023-03-06T13:40:35.848Z,5.20
2023-03-06T13:42:56.608Z,5.10
2023-03-06T13:45:06.111Z,5.10
2023-03-06T13:47:19.533Z,5.20
2023-03-06T13:49:23.225Z,5.00
2023-03-06T13:51:28.148Z,5.00
2023-03-06T13:53:48.675Z,5.00
2023-03-06T13:55:56.371Z,5.10
2023-03-06T13:58:16.452Z,5.10
2023-03-06T14:00:27.212Z,5.10
2023-03-06T14:02:39.732Z,5.10
2023-03-06T14:04:55.395Z,5.20
2023-03-06T14:07:09.599Z,5.10
2023-03-06T14:09:29.739Z,4.90
2023-03-06T14:11:32.041Z,4.90
2023-03-06T14:13:45.498Z,4.90
2023-03-06T14:15:50.810Z,4.90
2023-03-06T14:18:03.795Z,4.90
2023-03-06T14:20:17.121Z,4.90
2023-03-06T14:22:21.894Z,4.80
2023-03-06T14:24:29.796Z,4.80
2023-03-06T14:26:41.354Z,4.80
2023-03-06T14:28:46.259Z,4.80
2023-03-06T14:30:49.289Z,4.80
2023-03-06T14:32:52.153Z,4.80
2023-03-06T14:34:53.904Z,4.80
2023-03-06T14:37:01.179Z,4.80
2023-03-06T14:39:07.482Z,4.80
2023-03-06T14:41:11.797Z,4.90
2023-03-06T14:43:26.822Z,5.00
2023-03-06T14:45:28.533Z,4.80
2023-03-06T14:47:32.057Z,4.70
2023-03-06T14:49:33.895Z,4.70
2023-03-06T14:51:37.568Z,4.70
2023-03-06T14:53:39.381Z,4.60
2023-03-06T14:55:47.468Z,4.60
2023-03-06T14:57:51.326Z,4.60
2023-03-06T14:59:59.165Z,4.50
2023-03-06T15:02:02.653Z,4.50
2023-03-06T15:04:30.756Z,4.50
2023-03-06T15:06:38.244Z,4.50
2023-03-06T15:08:42.669Z,4.50
2023-03-06T15:10:54.630Z,4.40
2023-03-06T15:13:07.446Z,4.40
2023-03-06T15:15:10.450Z,4.40
2023-03-06T15:17:20.545Z,4.40
2023-03-06T15:19:23.068Z,4.30
2023-03-06T15:21:26.661Z,4.30
2023-03-06T15:23:35.856Z,4.30
2023-03-06T15:25:37.664Z,4.30
2023-03-06T15:27:39.424Z,4.30
2023-03-06T15:29:41.186Z,4.20
2023-03-06T15:31:44.450Z,4.20
2023-03-06T15:34:04.730Z,4.20
2023-03-06T15:36:18.167Z,4.20
2023-03-06T15:38:22.983Z,4.10
2023-03-06T15:40:26.161Z,4.20
2023-03-06T15:42:28.507Z,4.20
2023-03-06T15:44:31.598Z,4.10
2023-03-06T15:46:33.329Z,4.10
2023-03-06T15:48:35.566Z,4.20
2023-03-06T15:50:37.369Z,4.20
2023-03-06T15:52:39.360Z,4.10
2023-03-06T15:54:41.122Z,4.00
2023-03-06T15:56:45.388Z,4.00
2023-03-06T15:58:47.430Z,3.90
2023-03-06T16:00:49.267Z,3.90
2023-03-06T16:02:52.408Z,3.80
2023-03-06T16:04:54.243Z,3.80
2023-03-06T16:06:55.993Z,3.80
2023-03-06T16:09:00.922Z,3.80
2023-03-06T16:11:03.256Z,3.80
2023-03-06T16:13:06.813Z,3.90
2023-03-06T16:15:29.045Z,3.80
2023-03-06T16:17:30.814Z,3.70
2023-03-06T16:19:32.579Z,3.70
2023-03-06T16:21:34.331Z,3.60
2023-03-06T16:23:38.845Z,3.50
2023-03-06T16:25:42.137Z,3.50
2023-03-06T16:27:45.639Z,3.50
2023-03-06T16:29:47.395Z,3.50
2023-03-06T16:31:49.234Z,3.50
2023-03-06T16:33:51.147Z,3.50
2023-03-06T16:35:52.949Z,3.40
2023-03-06T16:37:54.840Z,3.40
2023-03-06T16:39:56.567Z,3.40
2023-03-06T16:41:59.710Z,3.30
2023-03-06T16:44:01.500Z,3.30
2023-03-06T16:46:07.355Z,3.30
2023-03-06T16:48:13.609Z,3.30
2023-03-06T16:50:21.512Z,3.30
2023-03-06T16:52:23.415Z,3.20
2023-03-06T16:54:26.276Z,3.30
2023-03-06T16:56:28.145Z,3.30
2023-03-06T16:58:29.890Z,3.30
2023-03-06T17:00:33.373Z,3.30
2023-03-06T17:02:35.261Z,3.20
2023-03-06T17:04:37.068Z,3.20
2023-03-06T17:06:39.236Z,3.20
2023-03-06T17:08:41.020Z,3.20
2023-03-06T17:10:42.845Z,3.20
2023-03-06T17:12:44.810Z,3.20
2023-03-06T17:14:46.584Z,3.20
2023-03-06T17:16:48.343Z,3.30
2023-03-06T17:18:50.207Z,3.40
2023-03-06T17:20:52.314Z,3.30
2023-03-06T17:22:54.352Z,3.30
2023-03-06T17:24:56.140Z,3.30
2023-03-06T17:26:57.967Z,3.20
2023-03-06T17:28:59.756Z,3.10
2023-03-06T17:31:02.967Z,3.10
2023-03-06T17:33:04.912Z,3.00
2023-03-06T17:35:07.661Z,3.10
2023-03-06T17:37:09.683Z,3.00
2023-03-06T17:39:12.934Z,3.00
2023-03-06T17:41:14.771Z,3.00
2023-03-06T17:43:16.582Z,3.00
2023-03-06T17:45:18.383Z,3.00
2023-03-06T17:47:20.151Z,3.00
2023-03-06T17:49:23.383Z,3.10
2023-03-06T17:51:25.255Z,3.10
2023-03-06T17:53:27.213Z,3.10
2023-03-06T17:55:29.935Z,3.10
2023-03-06T17:57:31.871Z,3.00
2023-03-06T17:59:36.606Z,3.00
2023-03-06T18:01:38.480Z,3.00
2023-03-06T18:03:43.356Z,3.00
2023-03-06T18:05:45.138Z,3.00
2023-03-06T18:07:46.906Z,3.00
2023-03-06T18:09:48.704Z,3.00
2023-03-06T18:11:50.480Z,2.90
2023-03-06T18:13:52.436Z,2.90
2023-03-06T18:15:54.531Z,2.90
2023-03-06T18:17:56.799Z,2.90
2023-03-06T18:19:58.658Z,3.00
2023-03-06T18:22:00.587Z,2.90
2023-03-06T18:24:02.360Z,2.90
2023-03-06T18:26:14.973Z,3.00
2023-03-06T18:28:16.769Z,3.00
2023-03-06T18:30:18.685Z,3.10
2023-03-06T18:32:20.611Z,3.10
2023-03-06T18:34:22.799Z,2.90
2023-03-06T18:36:25.896Z,2.80
2023-03-06T18:38:27.658Z,2.80
2023-03-06T18:40:29.804Z,2.70
2023-03-06T18:42:31.572Z,2.70
2023-03-06T18:44:33.410Z,2.60
2023-03-06T18:46:37.000Z,2.60
2023-03-06T18:48:38.756Z,2.60
2023-03-06T18:50:40.561Z,2.70
2023-03-06T18:52:42.947Z,2.70
2023-03-06T18:54:44.938Z,2.60
2023-03-06T18:56:46.807Z,2.50
2023-03-06T18:58:50.283Z,2.50
2023-03-06T19:00:52.051Z,2.50
2023-03-06T19:02:53.866Z,2.50
2023-03-06T19:04:56.346Z,2.50
2023-03-06T19:06:58.148Z,2.60
2023-03-06T19:09:01.765Z,2.70
2023-03-06T19:11:04.686Z,2.70
2023-03-06T19:13:07.600Z,2.70
2023-03-06T19:15:09.468Z,2.60
2023-03-06T19:17:11.273Z,2.50
2023-03-06T19:19:13.066Z,2.50
2023-03-06T19:21:16.047Z,2.40
2023-03-06T19:23:18.010Z,2.50
2023-03-06T19:25:19.774Z,2.40
2023-03-06T19:27:21.658Z,2.40
2023-03-06T19:29:24.965Z,2.40
2023-03-06T19:31:27.947Z,2.40
2023-03-06T19:33:29.825Z,2.30
2023-03-06T19:35:31.654Z,2.40
2023-03-06T19:37:33.528Z,2.20
2023-03-06T19:39:35.308Z,2.20
2023-03-06T19:41:37.186Z,2.20
2023-03-06T19:43:39.860Z,2.20
2023-03-06T19:45:42.992Z,2.20
2023-03-06T19:47:44.836Z,2.20
2023-03-06T19:49:46.571Z,2.20
2023-03-06T19:51:48.330Z,2.10
2023-03-06T19:53:50.319Z,2.10
2023-03-06T19:55:52.097Z,2.10
2023-03-06T19:57:54.377Z,2.00
2023-03-06T19:59:58.504Z,2.00
2023-03-06T20:02:00.474Z,2.00
2023-03-06T20:04:03.461Z,1.80
2023-03-06T20:06:09.207Z,1.70
2023-03-06T20:08:10.949Z,1.60
2023-03-06T20:10:12.830Z,1.60
2023-03-06T20:12:15.098Z,1.60
2023-03-06T20:14:18.651Z,1.70
2023-03-06T20:16:20.516Z,1.70
2023-03-06T20:18:22.443Z,1.70
2023-03-06T20:20:24.146Z,1.60
2023-03-06T20:22:25.988Z,1.60
2023-03-06T20:24:27.812Z,1.50
2023-03-06T20:26:29.807Z,1.60
2023-03-06T20:28:31.865Z,1.60
2023-03-06T20:30:38.183Z,1.60
2023-03-06T20:32:40.453Z,1.60
2023-03-06T20:34:42.339Z,1.50
2023-03-06T20:36:44.079Z,1.40
2023-03-06T20:38:46.849Z,1.30
2023-03-06T20:40:48.602Z,1.30
2023-03-06T20:42:50.312Z,1.10
2023-03-06T20:44:52.035Z,1.10
2023-03-06T20:46:55.207Z,1.00
2023-03-06T20:48:58.204Z,0.90
2023-03-06T20:51:04.850Z,0.90
2023-03-06T20:53:06.605Z,0.90
2023-03-06T20:55:08.603Z,0.90
2023-03-06T20:57:10.375Z,0.80
2023-03-06T20:59:12.236Z,0.80
2023-03-06T21:01:24.848Z,0.80
2023-03-06T21:03:26.716Z,0.80
2023-03-06T21:05:28.514Z,0.90
2023-03-06T21:07:30.274Z,1.00
2023-03-06T21:09:34.508Z,0.90
2023-03-06T21:11:36.381Z,0.90
2023-03-06T21:13:38.160Z,1.00
2023-03-06T21:15:40.582Z,0.90
2023-03-06T21:17:42.319Z,0.90
2023-03-06T21:19:44.172Z,0.90
2023-03-06T21:21:46.378Z,0.90
2023-03-06T21:23:48.350Z,0.90
2023-03-06T21:25:51.102Z,0.90
2023-03-06T21:27:52.863Z,1.10
2023-03-06T21:29:54.712Z,1.00
2023-03-06T21:31:56.503Z,1.00
2023-03-06T21:33:58.994Z,1.00
2023-03-06T21:36:01.103Z,0.90
2023-03-06T21:38:02.870Z,0.80
2023-03-06T21:40:07.573Z,0.70
2023-03-06T21:42:09.337Z,0.70
2023-03-06T21:44:11.112Z,0.80
2023-03-06T21:46:13.017Z,1.00
2023-03-06T21:48:15.481Z,1.20
2023-03-06T21:50:17.511Z,1.30
2023-03-06T21:52:19.254Z,1.30
2023-03-06T21:54:21.238Z,1.30
2023-03-06T21:56:25.049Z,1.30
2023-03-06T21:58:27.019Z,1.20
2023-03-06T22:00:28.762Z,1.10
2023-03-06T22:02:30.536Z,1.10
2023-03-06T22:04:32.674Z,1.00
2023-03-06T22:06:34.739Z,1.00
2023-03-06T22:08:36.490Z,0.90
2023-03-06T22:10:38.970Z,0.80
2023-03-06T22:12:40.675Z,0.90
2023-03-06T22:14:43.412Z,0.80
2023-03-06T22:16:45.164Z,0.80
2023-03-06T22:18:47.860Z,0.80
2023-03-06T22:20:49.580Z,0.80
2023-03-06T22:22:51.301Z,0.80
2023-03-06T22:24:53.048Z,0.80
2023-03-06T22:26:54.866Z,0.80
2023-03-06T22:28:57.006Z,0.90
2023-03-06T22:31:08.525Z,0.90
2023-03-06T22:33:10.443Z,1.00
2023-03-06T22:35:12.167Z,0.90
2023-03-06T22:37:13.903Z,0.90
2023-03-06T22:39:15.730Z,0.90
2023-03-06T22:41:18.046Z,0.90
2023-03-06T22:43:20.069Z,0.80
2023-03-06T22:45:21.839Z,0.80
2023-03-06T22:47:23.563Z,0.80
2023-03-06T22:49:25.396Z,0.80
2023-03-06T22:51:27.641Z,0.80
2023-03-06T22:53:29.404Z,0.70
2023-03-06T22:55:31.206Z,0.50
2023-03-06T22:57:33.035Z,0.50
2023-03-06T22:59:34.783Z,0.40
2023-03-06T23:01:36.562Z,0.50
2023-03-06T23:03:39.294Z,0.40
2023-03-06T23:05:41.710Z,0.40
2023-03-06T23:07:43.484Z,0.40
2023-03-06T23:09:45.413Z,0.50
2023-03-06T23:11:47.600Z,0.50
2023-03-06T23:13:49.604Z,0.40
2023-03-06T23:15:51.350Z,0.40
2023-03-06T23:17:53.102Z,0.30
2023-03-06T23:19:54.875Z,0.30
2023-03-06T23:21:56.671Z,0.40
2023-03-06T23:23:59.012Z,0.40
2023-03-06T23:26:01.110Z,0.30
2023-03-06T23:28:03.064Z,0.20
2023-03-06T23:30:05.590Z,0.30
2023-03-06T23:32:07.461Z,0.40
2023-03-06T23:34:11.533Z,0.30
2023-03-06T23:36:14.375Z,0.30
2023-03-06T23:38:16.135Z,0.30
2023-03-06T23:40:17.988Z,0.10
2023-03-06T23:42:20.073Z,0.10
2023-03-06T23:44:21.825Z,0.10
2023-03-06T23:46:23.679Z,0.00
2023-03-06T23:48:26.749Z,0.00
2023-03-06T23:50:28.504Z,-0.10
2023-03-06T23:52:30.226Z,0.00
2023-03-06T23:54:34.314Z,-0.10
2023-03-06T23:56:36.064Z,-0.20
2023-03-06T23:58:37.863Z,-0.30
